This is the latest recevied weather packets stored in our database for station/object OE-11365. If no packets are shown the sender has not sent any weather packets the latest 10 day(s).
| Time | Temp. | Humidity | Pressure | Rain* | Wind** | Luminosity | Snow |
|---|---|---|---|---|---|---|---|
| 1787617529 | 13.89° C | 87% | 1015.7 hPa | 0 mm | - | 0 W/m² | - |
| 1787616702 | 15.56° C | 84% | 1015.5 hPa | 0 mm | - | 0 W/m² | - |
| 1787616329 | 16.11° C | 80% | 1015.7 hPa | 0 mm | - | 0 W/m² | - |
| 1787615729 | 16.11° C | 81% | 1016.1 hPa | 0 mm | - | 0 W/m² | - |
| 1787614901 | 15.56° C | 82% | 1016.4 hPa | 0 mm | - | 0 W/m² | - |
| 1787614529 | 15.56° C | 83% | 1016.8 hPa | 0 mm | - | 0 W/m² | - |
| 1787613929 | 16.11° C | 80% | 1017 hPa | 0 mm | - | 0 W/m² | - |
| 1787613329 | 16.67° C | 78% | 1017 hPa | 0 mm | - | 0 W/m² | - |
| 1787612728 | 16.67° C | 76% | 1017 hPa | 0 mm | - | 0 W/m² | - |
| 1787612129 | 16.67° C | 76% | 1016.9 hPa | 0 mm | - | 0 W/m² | - |
| 1787611302 | 16.67° C | 77% | 1017.1 hPa | 0 mm | - | 0 W/m² | - |
| 1787610928 | 16.67° C | 77% | 1017.1 hPa | 0 mm | - | 0 W/m² | - |
| 1787610329 | 16.67° C | 75% | 1017.2 hPa | 0 mm | - | 0 W/m² | - |
| 1787609502 | 17.22° C | 74% | 1017.2 hPa | 0 mm | - | 0 W/m² | - |
| 1787609129 | 17.78° C | 71% | 1016.8 hPa | 0 mm | - | 0 W/m² | - |
| 1787607702 | 18.33° C | 68% | 1016.7 hPa | 0 mm | - | 0 W/m² | - |
| 1787607329 | 18.33° C | 67% | 1016.8 hPa | 0 mm | - | 0 W/m² | - |
| 1787606728 | 18.33° C | 66% | 1016.9 hPa | 0 mm | - | 0 W/m² | - |
| 1787605902 | 17.78° C | 69% | 1016.9 hPa | 0 mm | - | 0 W/m² | - |
| 1787605529 | 19.44° C | 63% | 1016.5 hPa | 0 mm | - | 0 W/m² | - |
| 1787604929 | 20.56° C | 57% | 1016.3 hPa | 0 mm | - | 0 W/m² | - |
| 1787604102 | 20.56° C | 55% | 1016.2 hPa | 0 mm | - | 0 W/m² | - |
| 1787603728 | 20.56° C | 56% | 1016.2 hPa | 0 mm | - | 0 W/m² | - |
| 1787603129 | 20.56° C | 56% | 1016.2 hPa | 0 mm | - | 0 W/m² | - |
| 1787602540 | 20.56° C | 57% | 1016.4 hPa | 0 mm | - | 0 W/m² | - |
* Rain latest hour (hover to see other rain measurements)
** Current wind speed in m/s (hover to see current wind gust speed)